Time;durP1;ratioP1;P1;durP2;ratioP2;P2;SDS_P1;SDS_P2;PMS_P1;PMS_P2;Temp;Humidity;BMP_temperature;BMP_pressure;BME280_temperature;BME280_humidity;BME280_pressure;Samples;Min_cycle;Max_cycle;Signal;HPM_P1;HPM_P2
2023/01/01 00:01:59;;;;;;;8.93;2.80;;;;;;;15.79;56.77;100333.69;6003346;28;20039;-77
2023/01/01 00:04:54;;;;;;;8.87;2.40;;;;;;;15.87;56.50;100339.72;6003642;28;20121;-77
2023/01/01 00:07:49;;;;;;;9.77;2.83;;;;;;;15.62;57.22;100326.91;6004420;28;20039;-77
2023/01/01 00:10:45;;;;;;;8.67;2.60;;;;;;;15.58;57.37;100322.94;6016036;28;20756;-76
2023/01/01 00:13:41;;;;;;;7.20;2.43;;;;;;;15.63;57.52;100329.38;5980732;28;20266;-77
2023/01/01 00:16:36;;;;;;;8.40;2.15;;;;;;;15.74;56.97;100336.09;5994193;28;20034;-74
2023/01/01 00:19:31;;;;;;;9.97;2.60;;;;;;;15.68;56.72;100326.16;5991499;28;20478;-75
2023/01/01 00:22:26;;;;;;;6.77;1.83;;;;;;;15.87;56.38;100353.09;5982507;28;20039;-75
2023/01/01 00:25:23;;;;;;;6.13;2.20;;;;;;;15.93;56.33;100346.16;6002883;28;20033;-75
2023/01/01 00:28:18;;;;;;;7.57;1.90;;;;;;;15.78;56.25;100337.38;6006581;28;20465;-77
2023/01/01 00:31:18;;;;;;;9.87;2.30;;;;;;;15.84;56.61;100358.03;6009010;28;20038;-76
2023/01/01 00:34:14;;;;;;;9.80;2.30;;;;;;;15.95;56.00;100354.84;6010128;28;20385;-77
2023/01/01 00:37:10;;;;;;;4.63;1.47;;;;;;;16.10;55.22;100352.94;6008821;28;20085;-76
2023/01/01 00:40:06;;;;;;;9.73;2.05;;;;;;;16.08;55.25;100349.66;6006685;28;20290;-75
2023/01/01 00:43:01;;;;;;;7.88;1.95;;;;;;;16.00;55.34;100336.38;5984238;28;20767;-77
2023/01/01 00:45:56;;;;;;;11.30;3.97;;;;;;;16.12;55.49;100340.19;5984570;28;20051;-75
2023/01/01 00:48:52;;;;;;;7.00;2.20;;;;;;;16.13;55.12;100354.41;5984851;28;20031;-77
2023/01/01 00:51:47;;;;;;;8.00;1.97;;;;;;;16.13;55.00;100338.34;5999307;28;20354;-74
2023/01/01 00:54:42;;;;;;;7.57;2.10;;;;;;;16.09;55.07;100341.41;5987136;28;20072;-76
2023/01/01 00:57:38;;;;;;;7.63;1.83;;;;;;;16.07;55.35;100334.59;6007710;28;20111;-75
2023/01/01 01:00:33;;;;;;;5.28;2.05;;;;;;;16.18;54.95;100346.63;5999277;28;20035;-75
2023/01/01 01:03:29;;;;;;;7.15;2.25;;;;;;;16.24;55.25;100354.75;5990921;28;20042;-77
2023/01/01 01:06:24;;;;;;;8.02;1.88;;;;;;;16.12;55.14;100350.91;5993612;28;20039;-76
2023/01/01 01:09:20;;;;;;;7.13;2.10;;;;;;;16.11;55.67;100349.25;5995338;28;20382;-76
2023/01/01 01:12:15;;;;;;;7.30;2.27;;;;;;;16.01;55.94;100340.69;6008645;28;20079;-77
2023/01/01 01:15:10;;;;;;;9.23;2.77;;;;;;;16.04;55.77;100349.19;6008039;28;20434;-75
2023/01/01 01:18:05;;;;;;;6.23;2.47;;;;;;;15.94;56.25;100342.50;6012113;28;20035;-75
2023/01/01 01:21:01;;;;;;;7.30;2.03;;;;;;;15.81;56.60;100348.53;5985932;28;20618;-76
2023/01/01 01:23:58;;;;;;;9.40;2.10;;;;;;;15.86;56.43;100346.13;6000576;28;20051;-77
2023/01/01 01:26:54;;;;;;;8.48;2.05;;;;;;;15.89;55.90;100328.88;6008317;28;20038;-75
2023/01/01 01:29:49;;;;;;;6.27;1.70;;;;;;;15.87;56.40;100339.72;6008208;28;20026;-76
2023/01/01 01:32:44;;;;;;;9.33;1.67;;;;;;;15.90;56.18;100330.50;5986205;28;20545;-76
2023/01/01 01:35:39;;;;;;;8.83;1.97;;;;;;;15.97;56.19;100336.78;5984445;28;20039;-76
2023/01/01 01:38:35;;;;;;;4.93;1.73;;;;;;;16.09;55.77;100356.63;6006383;28;20043;-75
2023/01/01 01:41:30;;;;;;;8.87;1.93;;;;;;;16.18;55.30;100352.81;5991588;28;20430;-76
2023/01/01 01:44:44;;;;;;;8.30;1.87;;;;;;;16.21;54.66;100360.47;5998551;28;20322;-76
2023/01/01 01:47:51;;;;;;;6.97;2.22;;;;;;;16.14;54.97;100358.75;5998212;28;20066;-76
2023/01/01 01:50:50;;;;;;;6.55;2.83;;;;;;;16.03;55.54;100376.13;5996373;28;20027;-77
2023/01/01 01:53:54;;;;;;;7.88;2.08;;;;;;;15.81;56.32;100377.13;5972731;28;20808;-76
2023/01/01 01:57:16;;;;;;;8.60;2.00;;;;;;;15.84;56.42;100360.69;5991572;28;20117;-76
2023/01/01 02:00:12;;;;;;;8.27;1.85;;;;;;;15.78;56.14;100348.06;5988144;28;20043;-77
2023/01/01 02:03:09;;;;;;;5.45;2.00;;;;;;;15.86;55.68;100350.63;6005818;28;20035;-75
2023/01/01 02:06:04;;;;;;;6.75;1.92;;;;;;;15.93;55.73;100356.88;5989045;28;20045;-74
2023/01/01 02:09:02;;;;;;;6.63;1.90;;;;;;;15.88;56.05;100361.97;5979571;28;20038;-76
2023/01/01 02:11:58;;;;;;;5.28;1.60;;;;;;;15.78;56.38;100350.75;6009940;28;20036;-75
2023/01/01 02:14:53;;;;;;;8.65;2.33;;;;;;;15.70;56.18;100335.66;5967223;29;20062;-75
2023/01/01 02:18:15;;;;;;;9.52;2.50;;;;;;;15.64;56.55;100363.13;5994389;28;20110;-76
2023/01/01 02:21:30;;;;;;;9.80;2.17;;;;;;;15.60;56.66;100351.16;5986084;28;20066;-75
2023/01/01 02:25:00;;;;;;;6.85;2.15;;;;;;;15.50;56.67;100339.94;5987600;28;20084;-76
2023/01/01 02:28:23;;;;;;;7.25;1.83;;;;;;;15.50;57.61;100363.97;5979517;28;20094;-77
2023/01/01 02:31:23;;;;;;;9.52;2.30;;;;;;;15.37;57.36;100361.94;6006209;28;20034;-77
2023/01/01 02:34:22;;;;;;;7.72;1.85;;;;;;;15.46;57.28;100360.84;5989140;28;20031;-77
2023/01/01 02:37:18;;;;;;;8.32;1.85;;;;;;;15.53;56.80;100365.44;6006032;28;20046;-76
2023/01/01 02:40:15;;;;;;;9.05;2.97;;;;;;;15.45;56.97;100361.84;5990566;28;20039;-75
2023/01/01 02:43:10;;;;;;;7.20;1.95;;;;;;;15.44;56.75;100367.34;5993493;28;20031;-75
2023/01/01 02:46:07;;;;;;;5.90;2.03;;;;;;;15.47;56.66;100383.88;5984491;28;20478;-75
2023/01/01 02:49:03;;;;;;;4.47;1.70;;;;;;;15.39;56.78;100362.59;5974612;28;20035;-78
2023/01/01 02:52:31;;;;;;;9.85;2.25;;;;;;;15.47;55.98;100375.88;5991775;28;20063;-76
2023/01/01 02:55:32;;;;;;;5.35;1.88;;;;;;;15.51;55.58;100378.19;5989120;28;20498;-76
2023/01/01 03:01:56;;;;;;;6.75;2.30;;;;;;;15.47;55.72;100399.94;5981825;28;20467;-75
2023/01/01 03:05:12;;;;;;;9.65;2.60;;;;;;;15.39;55.88;100381.28;5982773;28;20479;-81
2023/01/01 03:08:16;;;;;;;4.75;2.00;;;;;;;15.21;55.73;100382.69;5991502;28;20462;-77
2023/01/01 03:11:14;;;;;;;9.05;2.10;;;;;;;15.24;56.37;100401.00;5997482;28;20043;-80
2023/01/01 03:14:41;;;;;;;5.30;1.83;;;;;;;15.22;56.49;100401.19;5964971;28;20038;-77
2023/01/01 03:17:46;;;;;;;9.32;2.00;;;;;;;15.08;57.11;100409.19;5989416;28;20454;-79
2023/01/01 03:20:44;;;;;;;8.25;2.60;;;;;;;15.08;56.92;100396.69;5989510;28;20038;-77
2023/01/01 03:23:45;;;;;;;10.13;2.33;;;;;;;15.06;57.03;100412.03;6003433;28;20030;-79
2023/01/01 03:26:41;;;;;;;9.25;2.30;;;;;;;15.23;55.78;100413.53;5988031;28;20031;-79
2023/01/01 03:29:40;;;;;;;6.05;2.10;;;;;;;15.23;55.92;100410.84;6004042;28;20170;-78
2023/01/01 03:33:00;;;;;;;6.93;2.00;;;;;;;15.16;56.27;100417.97;5987216;28;20114;-78
2023/01/01 03:36:02;;;;;;;9.90;2.10;;;;;;;15.14;55.31;100393.25;5983528;28;20031;-75
2023/01/01 03:39:00;;;;;;;9.52;2.42;;;;;;;15.22;55.56;100411.06;5980817;28;20114;-76
2023/01/01 03:42:22;;;;;;;7.65;2.50;;;;;;;15.23;55.28;100413.53;6002281;28;20109;-76
2023/01/01 03:45:21;;;;;;;7.13;1.98;;;;;;;15.26;54.91;100413.16;5987400;28;20474;-76
2023/01/01 03:48:17;;;;;;;7.68;2.75;;;;;;;15.20;54.74;100405.88;5986251;28;20085;-76
2023/01/01 03:51:41;;;;;;;6.68;2.08;;;;;;;15.29;54.47;100399.44;6005288;28;20462;-75
2023/01/01 03:54:53;;;;;;;9.32;2.17;;;;;;;15.27;54.35;100414.00;5995028;28;20111;-78
2023/01/01 03:58:07;;;;;;;6.80;1.88;;;;;;;15.35;54.21;100421.94;5986799;28;20031;-77
2023/01/01 04:01:09;;;;;;;5.93;2.30;;;;;;;15.26;53.57;100407.00;5986762;28;20030;-77
2023/01/01 04:04:05;;;;;;;7.35;1.73;;;;;;;15.25;53.57;100395.47;6003188;28;20035;-76
2023/01/01 04:07:00;;;;;;;9.73;2.00;;;;;;;15.12;53.90;100384.59;5990990;28;20050;-78
2023/01/01 04:09:59;;;;;;;7.10;2.75;;;;;;;15.10;53.37;100383.97;6015716;28;20030;-77
2023/01/01 04:12:55;;;;;;;7.18;3.45;;;;;;;15.25;53.18;100390.13;6012574;28;20474;-76
2023/01/01 04:15:51;;;;;;;5.35;2.28;;;;;;;15.14;53.07;100398.59;6010305;28;20045;-76
2023/01/01 04:18:46;;;;;;;4.60;1.70;;;;;;;15.18;52.85;100405.25;6001311;28;20058;-76
2023/01/01 04:21:41;;;;;;;6.13;1.70;;;;;;;15.15;52.92;100418.97;6007765;28;20285;-78
2023/01/01 04:24:37;;;;;;;7.43;1.70;;;;;;;14.97;53.76;100398.97;6009128;28;20098;-76
2023/01/01 04:27:32;;;;;;;9.27;1.80;;;;;;;14.98;53.22;100409.44;5999870;28;20038;-76
2023/01/01 04:30:28;;;;;;;4.13;1.70;;;;;;;15.09;52.92;100422.34;6009487;28;20105;-76
2023/01/01 04:33:23;;;;;;;5.93;2.15;;;;;;;14.98;53.42;100414.78;6007507;28;20039;-76
2023/01/01 04:36:19;;;;;;;6.83;1.70;;;;;;;15.10;53.36;100423.19;6008692;28;20078;-76
2023/01/01 04:39:14;;;;;;;6.20;1.93;;;;;;;15.01;53.62;100430.44;6008137;28;20293;-75
2023/01/01 04:42:09;;;;;;;6.13;1.80;;;;;;;14.96;53.51;100416.81;6008439;28;20047;-77
2023/01/01 04:45:05;;;;;;;5.53;2.23;;;;;;;15.05;53.75;100426.41;6008698;28;20474;-78
2023/01/01 04:48:04;;;;;;;5.60;1.75;;;;;;;14.98;53.56;100429.97;6009106;28;20292;-76
2023/01/01 04:51:03;;;;;;;9.30;3.78;;;;;;;15.05;53.52;100446.94;6008401;28;20037;-78
2023/01/01 04:53:59;;;;;;;7.22;1.58;;;;;;;14.94;53.78;100439.38;6006672;28;20038;-75
2023/01/01 04:56:56;;;;;;;3.78;1.52;;;;;;;14.84;53.77;100436.94;6008867;28;20041;-76
2023/01/01 04:59:51;;;;;;;7.85;1.77;;;;;;;14.94;53.58;100453.56;6009240;28;20041;-77
2023/01/01 05:02:46;;;;;;;5.00;1.50;;;;;;;14.81;54.18;100451.47;6009383;28;20043;-76
2023/01/01 05:05:42;;;;;;;7.95;1.92;;;;;;;14.80;54.04;100447.16;6010323;28;20538;-76
2023/01/01 05:08:38;;;;;;;4.03;1.30;;;;;;;14.81;54.55;100453.34;6001018;28;20090;-75
2023/01/01 05:11:34;;;;;;;4.82;1.55;;;;;;;14.73;54.71;100456.88;6022950;28;20061;-75
2023/01/01 05:14:29;;;;;;;7.77;1.73;;;;;;;14.74;54.79;100466.56;6009912;28;20470;-76
2023/01/01 05:17:24;;;;;;;6.37;1.43;;;;;;;14.74;54.81;100455.88;6020537;28;20034;-77
2023/01/01 05:20:19;;;;;;;6.60;2.03;;;;;;;14.75;54.62;100467.41;6008919;28;20136;-76
2023/01/01 05:23:16;;;;;;;3.53;1.30;;;;;;;14.76;54.62;100461.88;6007908;28;20056;-76
2023/01/01 05:26:15;;;;;;;7.07;1.55;;;;;;;14.74;54.37;100460.38;6006367;28;20039;-77
2023/01/01 05:29:11;;;;;;;4.43;1.50;;;;;;;14.73;55.41;100469.44;6008503;28;20062;-76
2023/01/01 05:32:06;;;;;;;10.85;1.90;;;;;;;14.76;55.59;100464.53;6006287;28;21062;-78
2023/01/01 05:35:02;;;;;;;7.43;1.90;;;;;;;14.69;55.17;100463.59;5992068;28;20046;-76
2023/01/01 05:37:59;;;;;;;4.85;1.65;;;;;;;14.76;55.57;100479.72;6009278;28;20289;-77
2023/01/01 05:40:54;;;;;;;4.70;1.27;;;;;;;14.80;55.03;100470.34;6005711;28;20113;-75
2023/01/01 05:43:51;;;;;;;5.53;1.42;;;;;;;14.85;54.62;100473.31;6008110;28;20488;-78
2023/01/01 05:46:46;;;;;;;2.30;1.08;;;;;;;14.81;54.62;100466.69;6004594;28;20043;-77
2023/01/01 05:49:41;;;;;;;5.80;1.50;;;;;;;14.85;55.48;100473.31;6003922;28;20046;-77
2023/01/01 05:52:37;;;;;;;5.07;1.53;;;;;;;14.77;55.30;100460.88;6007716;28;20437;-77
2023/01/01 05:55:32;;;;;;;3.93;1.20;;;;;;;14.80;54.84;100459.69;5999486;28;20505;-77
2023/01/01 05:58:28;;;;;;;5.93;1.50;;;;;;;14.89;54.46;100464.75;5985001;28;20306;-76
2023/01/01 06:01:26;;;;;;;7.68;1.60;;;;;;;14.95;54.30;100483.75;5983736;28;20058;-77
2023/01/01 06:04:21;;;;;;;4.00;1.60;;;;;;;14.90;54.24;100481.63;6001398;28;20437;-76
2023/01/01 06:07:16;;;;;;;3.47;1.43;;;;;;;14.86;54.85;100491.84;6007505;28;20042;-76
2023/01/01 06:10:12;;;;;;;3.50;1.40;;;;;;;14.87;55.02;100492.66;6008621;28;20034;-79
2023/01/01 06:13:07;;;;;;;5.47;2.20;;;;;;;14.72;55.14;100489.94;5998838;28;20046;-78
2023/01/01 06:16:03;;;;;;;9.30;1.47;;;;;;;14.70;55.50;100493.81;6010349;28;20128;-78
2023/01/01 06:18:58;;;;;;;5.78;1.45;;;;;;;14.63;55.84;100512.34;6007360;28;20097;-77
2023/01/01 06:21:54;;;;;;;2.92;1.30;;;;;;;14.64;55.82;100513.19;5995627;28;20056;-76
2023/01/01 06:24:49;;;;;;;4.37;1.40;;;;;;;14.68;55.65;100527.81;5984714;28;20035;-77
2023/01/01 06:27:44;;;;;;;5.33;1.50;;;;;;;14.61;55.56;100519.72;5983523;28;20371;-77
2023/01/01 06:30:39;;;;;;;3.50;1.07;;;;;;;14.72;55.44;100529.16;5990372;28;20414;-77
2023/01/01 06:33:35;;;;;;;5.30;1.40;;;;;;;14.59;55.81;100519.06;5989162;28;20097;-77
2023/01/01 06:36:30;;;;;;;5.88;1.48;;;;;;;14.55;55.75;100527.56;5998819;28;20043;-77
2023/01/01 06:39:26;;;;;;;6.15;1.33;;;;;;;14.54;55.88;100515.25;6007786;28;20035;-78
2023/01/01 06:42:21;;;;;;;5.60;1.20;;;;;;;14.31;56.62;100491.19;6009238;28;20045;-76
2023/01/01 06:45:16;;;;;;;2.77;1.00;;;;;;;14.29;57.02;100519.88;6005685;28;20054;-77
2023/01/01 06:48:11;;;;;;;4.60;1.40;;;;;;;14.18;56.92;100513.09;5995546;28;20154;-76
2023/01/01 06:51:09;;;;;;;3.07;1.30;;;;;;;14.13;57.18;100520.75;6011438;28;20030;-76
2023/01/01 06:54:05;;;;;;;4.80;1.52;;;;;;;14.09;57.59;100539.97;6007582;28;20022;-77
2023/01/01 06:57:00;;;;;;;3.88;1.40;;;;;;;14.04;57.00;100534.31;6006506;28;20084;-76
2023/01/01 06:59:56;;;;;;;2.83;1.37;;;;;;;13.97;57.52;100554.69;6005268;28;20068;-79
2023/01/01 07:02:51;;;;;;;4.17;1.20;;;;;;;14.06;57.43;100557.13;6004242;28;20034;-75
2023/01/01 07:05:46;;;;;;;8.83;1.53;;;;;;;13.97;58.01;100568.81;6005226;28;20039;-76
2023/01/01 07:08:42;;;;;;;4.17;1.30;;;;;;;13.90;58.35;100567.84;6004779;28;20057;-76
2023/01/01 07:11:37;;;;;;;3.43;1.27;;;;;;;13.84;58.62;100575.69;6015394;28;20046;-77
2023/01/01 07:14:32;;;;;;;5.67;1.60;;;;;;;13.84;58.76;100583.69;6004303;28;20031;-76
2023/01/01 07:17:27;;;;;;;5.17;1.40;;;;;;;13.99;58.46;100590.00;6016522;28;20030;-75
2023/01/01 07:20:23;;;;;;;4.77;1.30;;;;;;;13.94;58.69;100606.47;5993052;28;20482;-75
2023/01/01 07:23:19;;;;;;;4.97;1.70;;;;;;;13.90;59.36;100596.34;5980790;28;20036;-78
2023/01/01 07:26:14;;;;;;;6.38;1.33;;;;;;;13.85;58.92;100599.53;5982905;28;20031;-78
2023/01/01 07:29:11;;;;;;;3.97;1.60;;;;;;;13.90;58.91;100594.50;5986364;28;20038;-79
2023/01/01 07:32:11;;;;;;;6.15;1.25;;;;;;;14.03;58.91;100621.47;6005426;28;20406;-77
2023/01/01 07:35:07;;;;;;;3.95;1.15;;;;;;;13.96;59.20;100615.16;6003922;28;20062;-76
2023/01/01 07:38:02;;;;;;;4.93;1.92;;;;;;;13.96;59.03;100612.50;6000653;28;20444;-78
2023/01/01 07:40:58;;;;;;;4.53;1.17;;;;;;;14.01;58.88;100639.47;6009146;28;20031;-76
2023/01/01 07:43:53;;;;;;;4.30;1.30;;;;;;;14.01;58.64;100642.16;5998120;28;20035;-77
2023/01/01 07:46:49;;;;;;;3.35;1.63;;;;;;;14.02;59.48;100645.66;5989871;28;20031;-78
2023/01/01 07:49:44;;;;;;;2.83;1.10;;;;;;;14.01;59.29;100647.47;6004151;28;20027;-77
2023/01/01 07:52:39;;;;;;;5.43;1.97;;;;;;;14.13;59.29;100654.09;5997048;28;20035;-75
2023/01/01 07:56:09;;;;;;;4.87;1.50;;;;;;;14.13;59.83;100647.97;6010042;28;20441;-75
2023/01/01 07:59:05;;;;;;;2.70;1.20;;;;;;;14.03;59.51;100639.28;5997953;28;20062;-76
2023/01/01 08:02:11;;;;;;;5.33;1.10;;;;;;;13.98;59.89;100652.31;5973991;28;20122;-77
2023/01/01 08:05:07;;;;;;;;;;;;;;;14.20;59.13;100684.44;6009414;28;20030;-76
2023/01/01 08:08:02;;;;;;;2.90;1.30;;;;;;;14.08;60.09;100663.63;6007765;28;19914;-79
2023/01/01 08:11:01;;;;;;;4.03;1.40;;;;;;;14.11;59.50;100672.13;6018575;28;20037;-76
2023/01/01 08:13:56;;;;;;;2.75;1.25;;;;;;;14.24;59.82;100709.75;5996309;28;20031;-78
2023/01/01 08:16:51;;;;;;;3.83;1.33;;;;;;;14.18;60.43;100705.13;6012857;28;20037;-77
2023/01/01 08:19:48;;;;;;;9.03;1.53;;;;;;;14.17;60.38;100695.44;5995420;28;20030;-76
2023/01/01 08:22:43;;;;;;;6.13;1.50;;;;;;;14.24;60.21;100696.41;5990701;28;20451;-76
2023/01/01 08:25:38;;;;;;;5.03;1.50;;;;;;;14.25;59.62;100690.09;5985932;28;20031;-76
2023/01/01 08:28:34;;;;;;;4.00;1.53;;;;;;;14.42;59.20;100700.75;5989530;28;20349;-76
2023/01/01 08:31:30;;;;;;;4.75;1.33;;;;;;;14.40;59.27;100700.94;6008629;28;20579;-78
2023/01/01 08:34:25;;;;;;;3.10;1.20;;;;;;;14.47;59.41;100704.56;6006928;28;20039;-77
2023/01/01 08:37:21;;;;;;;3.60;1.37;;;;;;;14.45;59.36;100711.94;6008468;28;20282;-78
2023/01/01 08:40:16;;;;;;;4.95;1.35;;;;;;;14.48;59.25;100708.09;5990283;28;20038;-78
2023/01/01 08:43:11;;;;;;;3.77;0.90;;;;;;;14.36;59.92;100696.94;6007833;28;20035;-76
2023/01/01 08:46:06;;;;;;;3.20;1.20;;;;;;;14.39;59.86;100711.75;5983832;28;20042;-78
2023/01/01 08:49:02;;;;;;;2.83;1.23;;;;;;;14.26;59.96;100691.78;5994151;28;20282;-75
2023/01/01 08:51:57;;;;;;;6.03;1.10;;;;;;;14.34;59.74;100716.78;6006220;28;20274;-76
2023/01/01 08:54:52;;;;;;;5.87;1.13;;;;;;;14.35;59.48;100711.25;6007622;28;20474;-76
2023/01/01 08:57:48;;;;;;;8.20;1.40;;;;;;;14.33;60.05;100726.63;5997721;28;20030;-76
2023/01/01 09:00:43;;;;;;;3.47;1.33;;;;;;;14.24;60.58;100720.44;6007564;28;20088;-76
2023/01/01 09:03:38;;;;;;;3.33;1.00;;;;;;;14.21;60.80;100715.44;6007095;28;20518;-76
2023/01/01 09:06:33;;;;;;;5.57;1.43;;;;;;;14.29;60.40;100736.75;6007542;28;20037;-76
2023/01/01 09:09:29;;;;;;;3.53;1.03;;;;;;;14.28;60.89;100751.13;5990001;28;20294;-76
2023/01/01 09:12:24;;;;;;;2.83;1.50;;;;;;;14.29;60.72;100743.94;5991159;28;20138;-75
2023/01/01 09:15:19;;;;;;;5.07;1.00;;;;;;;14.26;60.89;100766.47;5976717;28;20027;-75
2023/01/01 09:18:15;;;;;;;4.70;1.30;;;;;;;14.14;61.19;100741.13;6010096;28;20039;-76
2023/01/01 09:21:10;;;;;;;2.77;1.00;;;;;;;14.14;61.04;100773.13;5982766;28;20364;-75
2023/01/01 09:24:06;;;;;;;6.07;1.58;;;;;;;14.27;61.50;100799.28;5994897;28;20097;-77
2023/01/01 09:27:01;;;;;;;3.92;1.00;;;;;;;14.25;61.24;100785.28;6005100;28;20066;-76
2023/01/01 09:29:56;;;;;;;5.85;1.27;;;;;;;14.21;61.68;100790.13;6006735;28;20113;-75
2023/01/01 09:32:52;;;;;;;2.67;1.00;;;;;;;14.24;60.70;100779.09;5999518;28;20139;-75
2023/01/01 09:35:47;;;;;;;2.23;1.00;;;;;;;14.19;60.89;100775.28;5986095;28;20311;-76
2023/01/01 09:38:47;;;;;;;2.70;1.20;;;;;;;14.27;61.20;100794.78;6003215;28;20297;-76
2023/01/01 09:42:20;;;;;;;4.93;0.90;;;;;;;14.33;61.45;100825.31;6003767;28;20042;-76
2023/01/01 09:45:21;;;;;;;4.88;1.00;;;;;;;14.15;62.28;100828.16;6000067;28;20045;-75
2023/01/01 09:48:18;;;;;;;2.55;1.08;;;;;;;14.02;63.08;100825.09;5988003;28;20046;-76
2023/01/01 09:51:16;;;;;;;2.25;1.23;;;;;;;13.97;62.97;100837.31;5987491;28;20453;-76
2023/01/01 09:54:23;;;;;;;3.58;1.20;;;;;;;13.93;64.15;100850.13;5988057;28;20062;-75
2023/01/01 09:57:19;;;;;;;4.22;0.90;;;;;;;13.83;63.84;100824.59;5979662;28;20391;-76
2023/01/01 10:00:16;;;;;;;5.22;1.02;;;;;;;13.73;64.02;100833.56;5974763;29;20039;-77
2023/01/01 10:03:25;;;;;;;3.17;1.02;;;;;;;13.70;63.99;100827.72;5978979;28;20049;-76
2023/01/01 10:06:27;;;;;;;3.95;1.17;;;;;;;13.90;64.32;100869.09;5996101;28;20522;-76
2023/01/01 10:09:27;;;;;;;3.47;1.10;;;;;;;13.88;64.20;100865.78;5989484;28;20367;-76
2023/01/01 10:13:04;;;;;;;3.72;1.15;;;;;;;13.88;64.36;100870.28;5978533;28;20493;-78
2023/01/01 10:16:03;;;;;;;5.93;1.55;;;;;;;13.89;65.12;100866.63;5966200;28;20043;-78
2023/01/01 10:19:13;;;;;;;4.85;1.38;;;;;;;13.79;67.25;100877.41;5978730;28;20409;-76
2023/01/01 10:22:14;;;;;;;5.53;1.27;;;;;;;13.61;68.77;100882.88;5967086;28;20024;-76
2023/01/01 10:25:18;;;;;;;4.28;1.20;;;;;;;13.42;69.56;100874.28;5979930;28;20039;-77
2023/01/01 10:28:28;;;;;;;5.57;1.27;;;;;;;13.45;70.61;100873.97;6011666;28;20513;-76
2023/01/01 10:31:30;;;;;;;3.25;0.82;;;;;;;13.34;71.42;100871.59;5990011;28;20042;-80
2023/01/01 10:34:27;;;;;;;4.05;1.52;;;;;;;13.17;72.40;100880.50;5987733;28;20097;-77
2023/01/01 10:37:22;;;;;;;2.67;1.08;;;;;;;12.99;73.77;100884.00;5989983;28;20031;-76
2023/01/01 10:40:19;;;;;;;5.93;1.30;;;;;;;12.96;75.24;100902.16;5992559;28;20378;-77
2023/01/01 10:43:15;;;;;;;6.90;1.50;;;;;;;12.77;76.55;100892.53;5986111;28;20302;-77
2023/01/01 10:46:12;;;;;;;7.50;1.30;;;;;;;12.62;77.67;100893.22;6001297;28;20038;-77
2023/01/01 10:49:10;;;;;;;2.30;1.02;;;;;;;12.59;78.26;100905.03;5988617;28;20282;-78
2023/01/01 10:52:13;;;;;;;6.68;1.15;;;;;;;12.60;79.43;100929.81;6007164;28;20161;-76
2023/01/01 10:55:19;;;;;;;5.65;1.00;;;;;;;12.39;79.77;100919.50;5988009;28;20046;-75
2023/01/01 10:58:30;;;;;;;3.28;1.20;;;;;;;12.43;81.01;100939.47;6005128;28;20047;-76
2023/01/01 11:01:38;;;;;;;3.40;1.20;;;;;;;12.42;81.23;100938.63;5989580;28;20126;-76
2023/01/01 11:04:33;;;;;;;4.90;1.20;;;;;;;12.34;81.68;100927.06;5995116;28;20482;-75
2023/01/01 11:11:25;;;;;;;5.32;1.40;;;;;;;12.15;83.91;100946.66;6003110;28;20046;-74
2023/01/01 11:14:41;;;;;;;;;;;;;;;12.07;86.36;100967.00;6002527;28;20386;-75
2023/01/01 11:17:36;;;;;;;2.58;1.00;;;;;;;11.82;88.67;100956.09;6003808;28;19919;-76
2023/01/01 11:20:32;;;;;;;4.37;1.13;;;;;;;11.68;90.68;100969.88;5992561;28;20379;-76
2023/01/01 11:23:29;;;;;;;5.20;1.40;;;;;;;11.47;94.75;100979.03;5981378;28;20473;-75
2023/01/01 11:26:25;;;;;;;8.65;1.50;;;;;;;11.21;97.85;100981.47;6006727;28;20042;-75
2023/01/01 11:29:26;;;;;;;3.72;1.50;;;;;;;11.07;100.00;100976.59;5988025;28;20045;-75
2023/01/01 11:32:33;;;;;;;2.95;1.27;;;;;;;10.83;100.00;100947.88;5997860;28;20031;-74
2023/01/01 11:35:31;;;;;;;2.58;0.95;;;;;;;10.81;100.00;100941.91;5983337;28;20413;-74
2023/01/01 11:38:26;;;;;;;1.83;0.88;;;;;;;10.77;100.00;100938.69;5970863;28;20385;-75
2023/01/01 11:41:21;;;;;;;6.67;1.27;;;;;;;10.88;99.60;100939.50;5987028;28;20027;-76
2023/01/01 11:44:35;;;;;;;5.33;1.07;;;;;;;10.88;98.70;100944.81;5994281;28;20070;-79
2023/01/01 11:47:37;;;;;;;3.03;1.00;;;;;;;10.97;96.30;100944.81;5983827;29;20046;-76
2023/01/01 11:50:37;;;;;;;3.83;1.00;;;;;;;10.96;95.54;100926.34;5994906;28;20106;-75
2023/01/01 11:53:36;;;;;;;3.80;1.10;;;;;;;11.08;93.98;100922.56;5989753;28;20028;-76
2023/01/01 11:56:31;;;;;;;2.70;0.90;;;;;;;11.12;93.76;100932.72;5987614;28;20042;-76
2023/01/01 11:59:37;;;;;;;5.77;1.00;;;;;;;11.06;93.49;100903.31;6008274;28;20030;-75
2023/01/01 12:02:35;;;;;;;3.58;1.00;;;;;;;11.15;93.07;100905.91;5983286;28;20035;-76
2023/01/01 12:05:49;;;;;;;1.80;0.82;;;;;;;11.11;92.51;100893.94;5980355;29;20095;-76
2023/01/01 12:08:51;;;;;;;2.50;0.90;;;;;;;11.14;92.77;100895.44;5971435;28;20034;-76
2023/01/01 12:11:52;;;;;;;6.40;1.23;;;;;;;11.25;92.22;100897.94;6002506;28;20035;-77
2023/01/01 12:14:57;;;;;;;2.38;0.90;;;;;;;11.30;92.11;100908.94;5981815;28;20084;-74
2023/01/01 12:18:24;;;;;;;5.45;0.63;;;;;;;11.30;92.06;100906.28;6015988;28;20050;-76
2023/01/01 12:21:24;;;;;;;2.45;0.90;;;;;;;11.17;91.99;100903.94;6004702;28;20065;-78
2023/01/01 12:24:20;;;;;;;2.15;0.75;;;;;;;11.15;92.98;100926.31;5986643;28;20039;-77
2023/01/01 12:27:31;;;;;;;7.57;1.05;;;;;;;11.15;92.76;100928.94;5991206;28;20509;-76
2023/01/01 12:30:42;;;;;;;2.10;0.90;;;;;;;11.11;92.72;100935.56;6009667;28;20113;-76
2023/01/01 12:33:47;;;;;;;2.35;0.88;;;;;;;11.03;93.50;100924.81;5995845;28;20090;-75
2023/01/01 12:36:45;;;;;;;2.25;0.93;;;;;;;11.09;93.12;100940.97;6001178;28;20457;-78
2023/01/01 12:39:58;;;;;;;2.20;0.85;;;;;;;11.09;93.53;100953.41;5991972;28;20049;-77
2023/01/01 12:43:04;;;;;;;1.95;0.70;;;;;;;11.05;93.65;100950.22;5986903;28;20035;-78
2023/01/01 12:46:19;;;;;;;1.85;0.60;;;;;;;11.12;93.71;100966.41;5986639;28;20046;-78
2023/01/01 12:49:39;;;;;;;0.68;0.40;;;;;;;11.15;93.15;100974.91;5972749;29;20457;-76
2023/01/01 12:52:50;;;;;;;3.55;0.68;;;;;;;10.96;93.00;100932.50;6009238;28;20030;-77
2023/01/01 12:55:57;;;;;;;2.10;1.00;;;;;;;11.24;92.69;100973.22;6010442;28;20058;-76
2023/01/01 12:59:16;;;;;;;4.63;0.93;;;;;;;11.20;93.15;100977.97;6011897;28;20526;-75
2023/01/01 13:02:17;;;;;;;3.97;1.00;;;;;;;11.06;93.20;100959.03;5988245;28;20039;-77
2023/01/01 13:05:35;;;;;;;3.47;1.10;;;;;;;11.14;93.58;100967.13;5992552;28;20483;-76
2023/01/01 13:08:32;;;;;;;3.63;1.42;;;;;;;11.15;94.43;100979.38;5990718;28;20042;-76
2023/01/01 13:11:27;;;;;;;3.00;1.05;;;;;;;11.05;94.76;100960.84;6015675;28;20045;-77
2023/01/01 13:14:22;;;;;;;6.00;1.20;;;;;;;11.09;94.96;100975.50;6009602;28;20035;-75
2023/01/01 13:17:20;;;;;;;4.37;0.97;;;;;;;11.16;94.67;100959.84;6024467;28;20512;-76
2023/01/01 13:20:22;;;;;;;4.75;1.10;;;;;;;11.18;94.43;100960.53;5992722;28;20141;-75
2023/01/01 13:23:37;;;;;;;5.47;0.90;;;;;;;11.24;94.45;100957.31;5967692;29;20031;-77
2023/01/01 13:26:33;;;;;;;2.35;1.20;;;;;;;11.43;93.84;100970.50;5993343;28;20059;-76
2023/01/01 13:29:31;;;;;;;1.67;0.88;;;;;;;11.51;92.85;100957.34;5988094;28;20042;-77
2023/01/01 13:32:26;;;;;;;4.07;1.30;;;;;;;11.46;92.62;100942.84;6005388;28;20035;-76
2023/01/01 13:35:21;;;;;;;3.40;1.40;;;;;;;11.43;91.97;100936.00;5988513;28;20047;-76
2023/01/01 13:38:49;;;;;;;2.97;0.93;;;;;;;11.28;92.93;100942.75;5990562;28;20031;-76
2023/01/01 13:41:44;;;;;;;5.88;2.10;;;;;;;11.18;93.26;100963.19;6005086;28;20461;-76
2023/01/01 13:44:40;;;;;;;6.65;1.88;;;;;;;11.05;93.51;100952.03;6018774;28;20088;-77
2023/01/01 13:48:02;;;;;;;4.07;1.40;;;;;;;11.06;94.07;100975.78;6011434;28;20053;-75
2023/01/01 13:51:31;;;;;;;5.93;1.85;;;;;;;11.01;94.67;100988.63;6000095;28;20278;-78
2023/01/01 13:54:36;;;;;;;2.97;1.10;;;;;;;10.79;95.77;100969.53;6010294;28;20129;-76
2023/01/01 13:57:50;;;;;;;6.10;1.70;;;;;;;10.76;96.44;100983.94;6003129;28;20066;-77
2023/01/01 14:01:11;;;;;;;2.33;1.48;;;;;;;10.64;96.80;100962.00;5999120;28;20057;-76
2023/01/01 14:04:16;;;;;;;3.90;1.33;;;;;;;10.71;97.53;100973.72;6014672;28;20151;-77